Time;durP1;ratioP1;P1;durP2;ratioP2;P2;SDS_P1;SDS_P2;PMS_P1;PMS_P2;Temp;Humidity;BMP_temperature;BMP_pressure;BME280_temperature;BME280_humidity;BME280_pressure;Samples;Min_cycle;Max_cycle;Signal;HPM_P1;HPM_P2
2022/01/15 00:00:16;;;;;;;;;24.75;22.00;;;;;5.98;99.87;103250.22;5056743;28;11297;-71
2022/01/15 00:02:43;;;;;;;;;27.50;23.25;;;;;5.93;100.00;103246.94;5058645;28;11564;-71
2022/01/15 00:05:10;;;;;;;;;25.25;20.50;;;;;6.00;100.00;103242.91;5060219;28;11486;-71
2022/01/15 00:07:38;;;;;;;;;21.75;18.25;;;;;6.00;100.00;103242.03;5056692;28;11501;-71
2022/01/15 00:10:06;;;;;;;;;24.50;18.50;;;;;6.01;100.00;103241.09;5060478;28;11287;-71
2022/01/15 00:12:39;;;;;;;;;23.00;19.75;;;;;6.01;100.00;103239.25;5057851;28;11108;-71
2022/01/15 00:15:11;;;;;;;;;24.00;21.75;;;;;6.03;100.00;103244.53;5062325;28;11045;-71
2022/01/15 00:20:23;;;;;;;;;27.75;23.75;;;;;5.99;100.00;103243.00;5058466;28;11279;-70
2022/01/15 00:22:52;;;;;;;;;30.00;24.50;;;;;5.87;100.00;103245.47;5057057;28;11246;-70
2022/01/15 00:25:20;;;;;;;;;24.00;19.25;;;;;5.87;100.00;103231.19;5059015;28;11591;-71
2022/01/15 00:27:48;;;;;;;;;28.75;25.00;;;;;5.79;100.00;103225.44;5057457;28;11116;-71
2022/01/15 00:30:15;;;;;;;;;21.50;17.75;;;;;5.89;100.00;103229.25;5055590;28;11494;-70
2022/01/15 00:32:42;;;;;;;;;25.00;21.25;;;;;5.88;100.00;103228.38;5055400;28;11615;-70
2022/01/15 00:35:12;;;;;;;;;22.75;17.75;;;;;5.92;100.00;103223.69;5059433;28;11934;-71
2022/01/15 00:37:40;;;;;;;;;22.50;21.00;;;;;5.83;100.00;103217.06;5062233;28;11175;-71
2022/01/15 00:40:10;;;;;;;;;19.25;16.50;;;;;5.88;100.00;103219.47;5061579;28;11284;-72
2022/01/15 00:42:39;;;;;;;;;16.75;15.25;;;;;5.91;100.00;103203.16;5063695;28;11240;-72
2022/01/15 00:45:10;;;;;;;;;21.00;17.75;;;;;5.91;100.00;103213.06;5061245;28;11255;-72
2022/01/15 00:47:36;;;;;;;;;21.50;19.50;;;;;5.92;100.00;103214.78;5061308;28;11037;-72
2022/01/15 00:50:05;;;;;;;;;19.50;15.50;;;;;5.92;100.00;103212.94;5063593;28;11191;-71
2022/01/15 00:52:32;;;;;;;;;24.50;17.50;;;;;5.91;100.00;103218.44;5063838;28;11235;-71
2022/01/15 00:54:59;;;;;;;;;20.00;18.75;;;;;5.82;100.00;103206.44;5062451;28;11349;-71
2022/01/15 00:57:26;;;;;;;;;11.25;11.25;;;;;5.83;100.00;103210.84;5061824;28;11247;-71
2022/01/15 00:59:52;;;;;;;;;15.50;14.50;;;;;5.86;100.00;103207.94;5058445;28;11117;-71
2022/01/15 01:02:19;;;;;;;;;14.75;10.50;;;;;5.91;100.00;103208.53;5059676;28;11932;-71
2022/01/15 01:04:46;;;;;;;;;10.25;7.50;;;;;5.99;100.00;103211.59;5061710;28;10940;-71
2022/01/15 01:07:12;;;;;;;;;16.75;13.00;;;;;5.95;100.00;103206.50;5063990;28;11043;-71
2022/01/15 01:10:06;;;;;;;;;16.00;12.25;;;;;5.86;100.00;103202.56;5058412;28;10946;-71
2022/01/15 01:20:56;;;;;;;;;24.25;15.50;;;;;5.73;100.00;103188.22;5061262;28;11094;-71
2022/01/15 01:23:22;;;;;;;;;17.50;15.00;;;;;5.71;100.00;103182.94;5059959;28;11177;-71
2022/01/15 01:25:54;;;;;;;;;14.50;13.00;;;;;5.71;100.00;103179.41;5063160;28;11035;-71
2022/01/15 01:28:28;;;;;;;;;18.75;13.50;;;;;5.56;100.00;103179.41;5057243;28;11132;-71
2022/01/15 01:31:04;;;;;;;;;18.25;15.25;;;;;5.51;100.00;103183.38;5058855;28;11119;-71
2022/01/15 01:33:38;;;;;;;;;16.50;13.50;;;;;5.65;100.00;103179.78;5061882;28;11335;-71
2022/01/15 01:38:38;;;;;;;;;12.75;11.50;;;;;5.69;100.00;103170.53;5060177;28;10945;-71
2022/01/15 01:41:06;;;;;;;;;19.25;15.50;;;;;5.70;100.00;103172.28;5083692;28;11883;-71
2022/01/15 01:48:39;;;;;;;;;19.50;14.75;;;;;5.63;100.00;103170.94;5062929;28;11177;-71
2022/01/15 01:51:06;;;;;;;;;19.50;16.50;;;;;5.63;100.00;103177.19;5065190;28;11166;-71
2022/01/15 01:53:35;;;;;;;;;17.00;16.00;;;;;5.62;100.00;103172.78;5062146;28;11122;-71
2022/01/15 01:56:03;;;;;;;;;16.75;15.25;;;;;5.60;100.00;103172.03;5059591;28;11154;-71
2022/01/15 01:58:30;;;;;;;;;16.25;16.25;;;;;5.54;100.00;103167.06;5059909;28;11016;-71
2022/01/15 02:00:58;;;;;;;;;18.50;15.50;;;;;5.53;100.00;103162.63;5060002;28;11497;-71
2022/01/15 02:03:24;;;;;;;;;22.00;21.50;;;;;5.51;100.00;103168.13;5061908;28;11493;-71
2022/01/15 02:05:51;;;;;;;;;18.75;15.75;;;;;5.53;100.00;103166.19;5062001;28;11300;-71
2022/01/15 02:08:18;;;;;;;;;21.50;18.75;;;;;5.50;100.00;103160.16;5065275;28;11619;-71
2022/01/15 02:10:44;;;;;;;;;22.50;16.25;;;;;5.56;100.00;103160.63;5062285;28;11435;-71
2022/01/15 02:13:13;;;;;;;;;21.50;17.75;;;;;5.56;100.00;103155.25;5081223;28;11510;-71
2022/01/15 02:15:40;;;;;;;;;14.00;14.00;;;;;5.57;100.00;103156.09;5058522;28;11513;-71
2022/01/15 02:18:07;;;;;;;;;15.00;13.25;;;;;5.54;100.00;103157.16;5059506;28;11249;-71
2022/01/15 02:20:49;;;;;;;;;13.25;10.25;;;;;5.44;100.00;103160.53;5060603;28;11082;-71
2022/01/15 02:23:34;;;;;;;;;10.25;10.00;;;;;5.44;100.00;103158.69;5061209;28;11125;-71
2022/01/15 02:26:07;;;;;;;;;11.50;10.00;;;;;5.47;100.00;103154.97;5057502;28;11282;-71
2022/01/15 02:28:36;;;;;;;;;13.75;9.75;;;;;5.40;100.00;103143.75;5058748;28;11041;-71
2022/01/15 02:31:06;;;;;;;;;15.75;10.75;;;;;5.41;100.00;103139.22;5060497;28;11128;-71
2022/01/15 02:33:32;;;;;;;;;18.25;10.00;;;;;5.39;100.00;103138.47;5057297;28;11052;-71
2022/01/15 02:36:00;;;;;;;;;9.75;9.00;;;;;5.45;100.00;103138.06;5050926;28;11139;-71
2022/01/15 02:38:26;;;;;;;;;15.25;13.00;;;;;5.33;100.00;103130.81;5058331;28;11003;-71
2022/01/15 02:40:53;;;;;;;;;12.50;9.75;;;;;5.37;100.00;103119.78;5061646;28;11177;-71
2022/01/15 02:43:28;;;;;;;;;12.25;10.50;;;;;5.45;100.00;103113.88;5055954;28;11082;-71
2022/01/15 02:45:56;;;;;;;;;13.50;9.25;;;;;5.38;100.00;103116.13;5059356;28;11110;-71
2022/01/15 02:48:27;;;;;;;;;13.50;12.50;;;;;5.34;100.00;103108.38;5059530;28;11686;-70
2022/01/15 02:50:56;;;;;;;;;19.00;14.00;;;;;5.32;100.00;103102.25;5061819;28;11088;-71
2022/01/15 02:53:22;;;;;;;;;18.50;14.25;;;;;5.31;100.00;103109.44;5059015;28;11499;-71
2022/01/15 02:55:52;;;;;;;;;26.00;18.25;;;;;5.31;100.00;103100.50;5058849;28;12032;-70
2022/01/15 02:58:21;;;;;;;;;27.00;19.75;;;;;5.11;100.00;103101.78;5062894;28;11122;-70
2022/01/15 03:00:50;;;;;;;;;22.50;18.75;;;;;5.19;100.00;103108.38;5065769;28;11546;-70
2022/01/15 03:03:17;;;;;;;;;23.25;20.75;;;;;5.24;100.00;103103.59;5067802;28;11497;-70
2022/01/15 03:05:43;;;;;;;;;18.50;17.25;;;;;5.21;100.00;103092.19;5063538;28;11467;-70
2022/01/15 03:08:10;;;;;;;;;25.75;18.50;;;;;5.33;100.00;103087.84;5064119;28;11185;-70
2022/01/15 03:10:37;;;;;;;;;17.00;14.25;;;;;5.31;100.00;103081.72;5058174;28;11484;-70
2022/01/15 03:13:10;;;;;;;;;26.25;20.50;;;;;5.22;100.00;103085.88;5061172;28;11505;-70
2022/01/15 03:15:38;;;;;;;;;24.00;21.50;;;;;5.18;100.00;103079.81;5056805;28;11502;-70
2022/01/15 03:18:05;;;;;;;;;29.25;22.00;;;;;5.13;100.00;103078.38;5058681;28;11527;-70
2022/01/15 03:20:32;;;;;;;;;32.00;27.00;;;;;5.15;100.00;103077.31;5056927;28;11506;-70
2022/01/15 03:22:58;;;;;;;;;27.25;23.25;;;;;5.19;100.00;103077.97;5058373;28;11537;-70
2022/01/15 03:25:25;;;;;;;;;24.75;20.75;;;;;5.20;100.00;103075.22;5060019;28;11515;-70
2022/01/15 03:27:51;;;;;;;;;27.50;24.50;;;;;5.10;100.00;103076.75;5060245;28;11518;-70
2022/01/15 03:30:18;;;;;;;;;24.25;22.25;;;;;5.04;100.00;103079.00;5058221;28;12518;-70
2022/01/15 03:32:44;;;;;;;;;32.25;23.00;;;;;5.07;100.00;103058.16;5059336;28;11676;-71
2022/01/15 03:35:15;;;;;;;;;27.75;19.50;;;;;5.07;100.00;103065.38;5061859;28;11515;-70
2022/01/15 03:37:43;;;;;;;;;23.25;20.75;;;;;5.06;100.00;103069.00;5070983;28;12273;-70
2022/01/15 03:40:12;;;;;;;;;25.50;17.25;;;;;5.07;100.00;103060.84;5059744;28;11548;-70
2022/01/15 03:42:39;;;;;;;;;23.00;16.25;;;;;5.06;100.00;103052.91;5058370;28;11521;-70
2022/01/15 03:45:06;;;;;;;;;19.25;16.50;;;;;5.03;100.00;103042.38;5057808;28;11955;-70
2022/01/15 03:47:33;;;;;;;;;21.50;17.75;;;;;5.02;100.00;103044.19;5060957;28;11637;-71
2022/01/15 03:49:59;;;;;;;;;17.00;12.00;;;;;5.13;100.00;103048.84;5064817;28;11576;-70
2022/01/15 03:52:26;;;;;;;;;18.25;12.75;;;;;5.10;100.00;103063.34;5062390;28;11168;-70
2022/01/15 03:54:52;;;;;;;;;15.00;14.00;;;;;5.05;100.00;103057.41;5063938;28;11280;-70
2022/01/15 03:57:19;;;;;;;;;20.00;18.25;;;;;5.03;100.00;103037.00;5061302;28;11455;-70
2022/01/15 03:59:46;;;;;;;;;22.00;20.00;;;;;5.03;100.00;103040.53;5059735;28;12224;-70
2022/01/15 04:02:12;;;;;;;;;25.75;21.75;;;;;4.88;100.00;103042.38;5061773;28;12407;-71
2022/01/15 04:04:39;;;;;;;;;23.75;20.50;;;;;4.89;100.00;103045.91;5058415;28;12340;-71
2022/01/15 04:07:06;;;;;;;;;18.25;17.00;;;;;4.76;100.00;103043.16;5044355;28;11456;-71
2022/01/15 04:09:33;;;;;;;;;20.50;20.50;;;;;4.85;100.00;103031.84;5073800;28;11629;-71
2022/01/15 04:11:59;;;;;;;;;23.50;18.50;;;;;4.86;100.00;103027.34;5059671;28;14382;-71
2022/01/15 04:14:26;;;;;;;;;22.75;19.75;;;;;4.83;100.00;103020.34;5062151;28;11462;-71
2022/01/15 04:16:52;;;;;;;;;21.00;18.00;;;;;4.91;100.00;103027.91;5062655;28;11632;-71
2022/01/15 04:19:19;;;;;;;;;23.50;18.00;;;;;4.87;100.00;103029.91;5061843;28;11402;-71
2022/01/15 04:21:46;;;;;;;;;22.00;17.25;;;;;4.92;100.00;103033.16;5063214;28;11466;-71
2022/01/15 04:24:12;;;;;;;;;26.00;22.75;;;;;4.89;100.00;103022.63;5062658;28;12177;-71
2022/01/15 04:26:38;;;;;;;;;22.25;20.00;;;;;4.89;100.00;103021.75;5061864;28;11606;-71
2022/01/15 04:29:06;;;;;;;;;24.75;19.50;;;;;4.92;100.00;103033.16;5060043;28;11493;-71
2022/01/15 04:31:52;;;;;;;;;22.00;20.00;;;;;4.76;100.00;103031.56;5059990;28;11559;-71
2022/01/15 04:34:22;;;;;;;;;25.25;21.25;;;;;4.78;100.00;103027.84;5060673;28;11329;-71
2022/01/15 04:36:49;;;;;;;;;23.25;19.00;;;;;4.74;100.00;103023.63;5061287;28;11617;-71
2022/01/15 04:39:16;;;;;;;;;24.50;20.25;;;;;4.78;100.00;103013.56;5059954;28;11562;-71
2022/01/15 04:41:42;;;;;;;;;23.25;16.25;;;;;4.80;100.00;103022.38;5062689;28;11491;-71
2022/01/15 04:44:09;;;;;;;;;23.50;19.50;;;;;4.63;100.00;103024.28;5058515;28;11465;-71
2022/01/15 04:46:38;;;;;;;;;22.25;17.50;;;;;4.59;100.00;103027.25;5060997;28;11493;-71
2022/01/15 04:49:05;;;;;;;;;17.25;15.75;;;;;4.64;100.00;103012.59;5064865;28;11496;-71
2022/01/15 04:51:33;;;;;;;;;17.50;14.00;;;;;4.73;100.00;103008.47;5060994;28;11606;-71
2022/01/15 04:54:00;;;;;;;;;19.25;18.75;;;;;4.71;100.00;103006.84;5060565;28;11465;-71
2022/01/15 04:56:28;;;;;;;;;20.75;15.25;;;;;4.71;100.00;102997.00;5062339;28;11553;-71
2022/01/15 04:58:55;;;;;;;;;18.00;14.50;;;;;4.72;100.00;102992.50;5073851;28;11556;-74
2022/01/15 05:01:22;;;;;;;;;22.00;19.00;;;;;4.71;100.00;102977.31;5046400;28;11520;-74
2022/01/15 05:03:49;;;;;;;;;17.50;14.25;;;;;4.72;100.00;102977.25;5064578;28;11498;-74
2022/01/15 05:06:17;;;;;;;;;18.50;14.50;;;;;4.67;100.00;102986.53;5059646;28;11532;-74
2022/01/15 05:08:45;;;;;;;;;20.75;17.75;;;;;4.47;100.00;102994.03;5061870;28;11724;-74
2022/01/15 05:11:27;;;;;;;;;20.50;17.50;;;;;4.50;100.00;102991.16;5062741;28;11533;-73
2022/01/15 05:13:53;;;;;;;;;18.25;15.50;;;;;4.41;100.00;102985.50;5063335;28;11560;-74
2022/01/15 05:16:22;;;;;;;;;16.00;12.75;;;;;4.48;100.00;102981.50;5045417;28;11507;-73
2022/01/15 05:18:48;;;;;;;;;17.00;10.75;;;;;4.55;100.00;102974.78;5061407;28;11471;-72
2022/01/15 05:21:15;;;;;;;;;12.00;10.00;;;;;4.53;100.00;102977.56;5059660;28;11518;-73
2022/01/15 05:23:41;;;;;;;;;10.75;10.75;;;;;4.42;100.00;102973.81;5058466;28;11490;-73
2022/01/15 05:26:09;;;;;;;;;11.75;10.25;;;;;4.35;100.00;102976.03;5076583;28;11469;-73
2022/01/15 05:28:36;;;;;;;;;19.75;14.25;;;;;4.35;100.00;102967.97;5058062;28;11488;-73
2022/01/15 05:31:02;;;;;;;;;14.75;10.25;;;;;4.44;100.00;102963.84;5062986;28;11550;-73
2022/01/15 05:33:29;;;;;;;;;15.50;13.75;;;;;4.47;100.00;102966.34;5059002;28;11570;-72
2022/01/15 05:35:55;;;;;;;;;14.50;10.00;;;;;4.49;100.00;102954.56;5060833;28;11494;-72
2022/01/15 05:38:22;;;;;;;;;18.50;10.00;;;;;4.50;100.00;102958.97;5059068;28;11102;-73
2022/01/15 05:40:49;;;;;;;;;15.75;12.00;;;;;4.54;100.00;102951.59;5059894;28;12213;-71
2022/01/15 05:43:15;;;;;;;;;12.75;10.25;;;;;4.45;100.00;102955.69;5059647;28;11360;-72
2022/01/15 05:45:42;;;;;;;;;9.25;9.25;;;;;4.45;100.00;102950.34;5060769;28;11461;-73
2022/01/15 05:48:08;;;;;;;;;14.75;12.00;;;;;4.36;100.00;102940.22;5061216;28;11576;-71
2022/01/15 05:50:35;;;;;;;;;17.00;12.00;;;;;4.42;100.00;102934.44;5060132;28;12466;-73
2022/01/15 05:53:02;;;;;;;;;11.00;11.00;;;;;4.46;100.00;102932.44;5057920;28;11476;-71
2022/01/15 05:55:28;;;;;;;;;15.25;13.75;;;;;4.46;100.00;102937.78;5061650;28;11501;-73
2022/01/15 05:57:55;;;;;;;;;17.00;15.75;;;;;4.32;100.00;102946.72;5058059;28;11530;-73
2022/01/15 06:00:21;;;;;;;;;16.25;14.00;;;;;4.18;100.00;102939.53;5061347;28;11541;-73
2022/01/15 06:02:48;;;;;;;;;12.00;10.50;;;;;4.29;100.00;102939.75;5060115;28;11613;-73
2022/01/15 06:05:15;;;;;;;;;18.25;16.50;;;;;4.19;100.00;102932.34;5076244;28;11479;-72
2022/01/15 06:07:41;;;;;;;;;19.50;16.50;;;;;4.19;100.00;102930.53;5058683;28;11629;-72
2022/01/15 06:10:08;;;;;;;;;14.25;14.00;;;;;4.15;100.00;102933.50;5061546;28;11603;-72
2022/01/15 06:12:42;;;;;;;;;14.25;10.25;;;;;4.17;100.00;102919.03;5058674;28;11630;-73
2022/01/15 06:15:10;;;;;;;;;17.25;13.25;;;;;4.18;100.00;102914.53;5061970;28;11445;-72
2022/01/15 06:17:37;;;;;;;;;21.25;15.75;;;;;4.12;100.00;102914.94;5059608;28;11469;-73
2022/01/15 06:20:05;;;;;;;;;16.50;14.00;;;;;4.10;100.00;102909.69;5062941;28;11609;-71
2022/01/15 06:22:32;;;;;;;;;11.75;10.50;;;;;4.13;100.00;102919.34;5061307;28;11618;-73
2022/01/15 06:24:58;;;;;;;;;17.25;15.00;;;;;4.16;100.00;102920.00;5059583;28;12334;-71
2022/01/15 06:27:27;;;;;;;;;11.50;9.25;;;;;4.15;100.00;102918.28;5058058;28;11548;-72
2022/01/15 06:29:56;;;;;;;;;20.00;16.00;;;;;4.08;100.00;102911.59;5060178;28;11629;-72
2022/01/15 06:32:24;;;;;;;;;13.50;11.25;;;;;4.07;100.00;102915.22;5060849;28;11563;-70
2022/01/15 06:34:51;;;;;;;;;20.50;16.50;;;;;4.12;100.00;102913.13;5074251;28;11581;-72
2022/01/15 06:37:18;;;;;;;;;19.00;17.50;;;;;4.14;100.00;102907.66;5058072;28;11505;-72
2022/01/15 06:39:46;;;;;;;;;15.50;13.00;;;;;4.08;100.00;102906.22;5061328;28;11648;-71
2022/01/15 06:42:12;;;;;;;;;10.50;10.50;;;;;4.09;100.00;102901.72;5058401;28;11519;-71
2022/01/15 06:44:39;;;;;;;;;15.50;13.00;;;;;4.07;100.00;102898.28;5058549;28;11552;-72
2022/01/15 06:47:06;;;;;;;;;11.50;11.50;;;;;4.05;100.00;102898.38;5058638;28;11648;-73
2022/01/15 06:49:33;;;;;;;;;22.25;18.25;;;;;3.92;100.00;102892.06;5078053;28;11562;-73
2022/01/15 06:52:00;;;;;;;;;20.00;13.75;;;;;3.89;100.00;102893.13;5057908;28;12287;-73
2022/01/15 06:54:26;;;;;;;;;13.25;10.50;;;;;3.84;100.00;102894.34;5062586;28;11638;-72
2022/01/15 06:56:53;;;;;;;;;15.75;11.25;;;;;3.75;100.00;102885.09;5058580;28;11488;-71
2022/01/15 06:59:20;;;;;;;;;15.75;12.75;;;;;3.70;100.00;102892.50;5058932;28;11471;-73
2022/01/15 07:01:46;;;;;;;;;9.50;9.00;;;;;3.72;100.00;102890.63;5061497;28;11467;-72
2022/01/15 07:04:13;;;;;;;;;13.00;10.00;;;;;3.33;100.00;102885.88;5047204;28;11574;-72
2022/01/15 07:06:39;;;;;;;;;12.50;10.00;;;;;3.33;100.00;102886.72;5059272;28;11504;-73
2022/01/15 07:09:05;;;;;;;;;11.75;9.50;;;;;3.30;100.00;102888.72;5058201;28;11445;-71
2022/01/15 07:11:32;;;;;;;;;9.25;8.50;;;;;3.26;100.00;102887.19;5057210;28;11460;-72
2022/01/15 07:13:58;;;;;;;;;8.25;7.00;;;;;3.38;100.00;102883.75;5059655;28;11426;-72
2022/01/15 07:16:25;;;;;;;;;14.75;12.00;;;;;3.44;100.00;102879.84;5042809;28;12214;-72
2022/01/15 07:18:52;;;;;;;;;14.50;11.50;;;;;3.56;100.00;102879.97;5056198;28;11489;-72
2022/01/15 07:21:18;;;;;;;;;15.00;11.25;;;;;3.64;100.00;102880.38;5072464;28;11592;-72
2022/01/15 07:23:45;;;;;;;;;11.25;9.00;;;;;3.65;100.00;102876.72;5055405;28;11481;-72
2022/01/15 07:26:11;;;;;;;;;14.50;12.25;;;;;3.67;100.00;102868.59;5040707;28;11586;-72
2022/01/15 07:28:38;;;;;;;;;12.00;12.00;;;;;3.64;100.00;102874.16;5074217;28;11548;-72
2022/01/15 07:31:04;;;;;;;;;16.25;13.75;;;;;3.55;100.00;102882.75;5059370;28;11506;-71
2022/01/15 07:33:31;;;;;;;;;18.00;12.00;;;;;3.48;100.00;102879.59;5061003;28;11570;-73
2022/01/15 07:35:57;;;;;;;;;13.25;11.25;;;;;3.58;100.00;102879.88;5062103;28;11530;-73
2022/01/15 07:38:24;;;;;;;;;9.25;6.75;;;;;3.67;100.00;102882.00;5061002;28;11497;-72
2022/01/15 07:40:55;;;;;;;;;10.00;10.00;;;;;3.71;100.00;102887.06;5058008;28;11548;-71
2022/01/15 07:43:21;;;;;;;;;9.00;8.75;;;;;3.67;100.00;102882.84;5075049;28;11478;-73
2022/01/15 07:45:48;;;;;;;;;12.50;9.25;;;;;3.73;100.00;102876.28;5060382;28;11449;-72
2022/01/15 07:48:14;;;;;;;;;13.25;11.50;;;;;3.69;100.00;102877.41;5064633;28;11544;-72
2022/01/15 07:50:41;;;;;;;;;15.25;12.50;;;;;3.60;100.00;102868.13;5060194;28;11462;-72
2022/01/15 07:53:07;;;;;;;;;9.75;9.00;;;;;3.65;100.00;102873.19;5061603;28;11463;-72
2022/01/15 07:55:34;;;;;;;;;18.00;13.25;;;;;3.71;100.00;102875.50;5063847;28;11685;-72
2022/01/15 07:58:04;;;;;;;;;16.25;13.25;;;;;3.71;100.00;102872.81;5077835;28;11628;-71
2022/01/15 08:00:33;;;;;;;;;13.75;13.00;;;;;3.69;100.00;102882.75;5062863;28;11473;-73
2022/01/15 08:02:59;;;;;;;;;17.75;15.00;;;;;3.58;100.00;102882.56;5063772;28;11515;-73
2022/01/15 08:05:26;;;;;;;;;16.50;12.75;;;;;3.69;100.00;102883.63;5064158;28;11454;-72
2022/01/15 08:07:52;;;;;;;;;13.00;12.00;;;;;3.72;100.00;102877.25;5061681;28;11556;-72
2022/01/15 08:10:19;;;;;;;;;13.25;12.25;;;;;3.69;100.00;102883.63;5060734;28;11498;-71
2022/01/15 08:12:48;;;;;;;;;21.50;15.75;;;;;3.65;100.00;102890.13;5059288;28;11488;-70
2022/01/15 08:15:17;;;;;;;;;21.00;18.00;;;;;3.60;100.00;102881.50;5063615;28;11654;-72
2022/01/15 08:17:44;;;;;;;;;18.50;17.00;;;;;3.58;100.00;102875.41;5063215;28;11589;-72
2022/01/15 08:20:11;;;;;;;;;17.75;14.00;;;;;3.60;100.00;102880.66;5059680;28;11599;-72
2022/01/15 08:22:40;;;;;;;;;17.50;15.00;;;;;3.62;100.00;102887.63;5077802;28;11511;-72
2022/01/15 08:25:08;;;;;;;;;17.50;14.00;;;;;3.67;100.00;102890.03;5060457;28;11477;-72
2022/01/15 08:27:34;;;;;;;;;15.00;15.00;;;;;3.76;100.00;102894.84;5077690;28;11628;-72
2022/01/15 08:30:01;;;;;;;;;16.25;13.75;;;;;3.76;100.00;102892.16;5063255;28;11468;-73
2022/01/15 08:32:27;;;;;;;;;15.25;12.50;;;;;3.84;100.00;102895.22;5062115;28;11478;-72
2022/01/15 08:34:54;;;;;;;;;19.50;15.00;;;;;3.82;100.00;102896.28;5058000;28;11473;-72
2022/01/15 08:37:20;;;;;;;;;14.50;12.00;;;;;3.82;100.00;102889.09;5062178;28;11537;-72
2022/01/15 08:39:47;;;;;;;;;17.00;16.00;;;;;3.82;100.00;102888.25;5063777;28;11580;-72
2022/01/15 08:42:13;;;;;;;;;16.25;15.25;;;;;3.77;100.00;102891.22;5061771;28;11469;-72
2022/01/15 08:44:43;;;;;;;;;21.50;18.00;;;;;3.96;100.00;102883.72;5063108;28;11534;-73
2022/01/15 08:47:10;;;;;;;;;28.00;17.00;;;;;3.80;100.00;102880.28;5062146;28;11627;-73
2022/01/15 08:49:37;;;;;;;;;17.00;14.75;;;;;3.80;100.00;102877.63;5063952;28;11502;-72
2022/01/15 08:52:04;;;;;;;;;20.00;18.00;;;;;3.55;100.00;102872.03;5064770;28;11520;-72
2022/01/15 08:54:31;;;;;;;;;25.25;20.25;;;;;3.54;100.00;102870.31;5047243;28;11479;-70
2022/01/15 08:56:57;;;;;;;;;17.50;17.00;;;;;3.58;100.00;102869.19;5065458;28;11594;-71
2022/01/15 08:59:26;;;;;;;;;20.25;18.50;;;;;3.58;100.00;102862.00;5062637;28;11469;-72
2022/01/15 09:01:58;;;;;;;;;17.25;17.00;;;;;3.53;100.00;102863.25;5080280;28;11490;-71
2022/01/15 09:04:27;;;;;;;;;18.75;17.50;;;;;3.57;100.00;102871.00;5061753;28;11515;-73
2022/01/15 09:06:54;;;;;;;;;28.50;20.75;;;;;3.53;100.00;102876.63;5081188;28;11529;-73
2022/01/15 09:09:20;;;;;;;;;24.25;20.00;;;;;3.59;100.00;102870.91;5059868;28;11527;-73
2022/01/15 09:11:47;;;;;;;;;20.00;17.25;;;;;3.45;100.00;102868.19;5060941;28;11515;-71
2022/01/15 09:14:14;;;;;;;;;21.75;17.75;;;;;3.33;100.00;102857.28;5041691;28;11503;-73
2022/01/15 09:16:40;;;;;;;;;22.25;18.25;;;;;3.28;100.00;102853.16;5060368;28;11495;-72
2022/01/15 09:19:08;;;;;;;;;27.75;24.50;;;;;3.34;100.00;102852.78;5080370;28;11497;-73
2022/01/15 09:21:35;;;;;;;;;20.25;17.00;;;;;3.46;100.00;102851.16;5076591;28;11550;-73
2022/01/15 09:24:02;;;;;;;;;24.50;21.25;;;;;3.47;100.00;102853.78;5062169;28;11590;-74
2022/01/15 09:32:01;;;;;;;;;13.75;13.75;;;;;3.51;100.00;102857.13;5060308;28;11546;-74
2022/01/15 09:34:28;;;;;;;;;17.50;16.25;;;;;3.58;100.00;102856.66;5060953;28;11447;-73
2022/01/15 09:36:55;;;;;;;;;16.50;14.00;;;;;3.68;100.00;102857.78;5063093;28;11478;-74
2022/01/15 09:39:23;;;;;;;;;22.25;16.25;;;;;3.65;100.00;102846.41;5059550;28;11505;-74
2022/01/15 09:41:53;;;;;;;;;16.00;14.00;;;;;3.67;100.00;102849.84;5059989;28;11613;-73
2022/01/15 09:44:25;;;;;;;;;16.50;13.25;;;;;3.73;100.00;102845.97;5063803;28;11597;-71
2022/01/15 09:46:52;;;;;;;;;17.25;16.25;;;;;3.67;100.00;102849.84;5073559;28;11506;-72
2022/01/15 09:49:23;;;;;;;;;15.75;13.25;;;;;3.77;100.00;102843.00;5060471;28;11566;-73
2022/01/15 09:51:50;;;;;;;;;18.75;14.00;;;;;3.85;100.00;102845.19;5059250;28;11459;-71
2022/01/15 09:54:18;;;;;;;;;17.75;13.50;;;;;3.82;100.00;102845.38;5058372;28;12309;-71
2022/01/15 09:56:46;;;;;;;;;17.25;13.25;;;;;3.83;100.00;102847.09;5058801;28;12263;-72
2022/01/15 09:59:14;;;;;;;;;17.00;16.00;;;;;3.83;100.00;102836.38;5061690;28;11485;-72
2022/01/15 10:01:42;;;;;;;;;19.25;16.50;;;;;3.75;100.00;102834.19;5058699;28;11547;-71
2022/01/15 10:04:09;;;;;;;;;18.75;15.25;;;;;3.75;100.00;102828.84;5074773;28;11511;-72
2022/01/15 10:06:35;;;;;;;;;10.50;9.75;;;;;3.84;100.00;102830.06;5067443;28;11503;-73
2022/01/15 10:09:07;;;;;;;;;18.75;16.00;;;;;3.76;100.00;102830.56;5057352;28;11522;-72
2022/01/15 10:11:40;;;;;;;;;17.00;12.50;;;;;3.84;100.00;102835.41;5060433;28;11585;-73
2022/01/15 10:14:23;;;;;;;;;17.00;13.75;;;;;3.84;100.00;102833.59;5061042;28;11446;-72
2022/01/15 10:16:49;;;;;;;;;18.00;13.00;;;;;3.86;100.00;102836.19;5071005;28;11540;-72
2022/01/15 10:19:32;;;;;;;;;19.75;12.50;;;;;3.89;100.00;102828.81;5058339;28;11583;-73
2022/01/15 10:22:05;;;;;;;;;11.25;10.75;;;;;3.87;100.00;102827.19;5063490;28;11485;-73
2022/01/15 10:24:32;;;;;;;;;14.75;13.50;;;;;3.88;100.00;102837.81;5074028;28;11559;-73
2022/01/15 10:27:29;;;;;;;;;17.75;14.00;;;;;3.83;100.00;102826.53;5057021;28;11562;-71
2022/01/15 10:30:09;;;;;;;;;19.75;18.50;;;;;3.80;100.00;102826.72;5058386;28;11524;-69
2022/01/15 10:32:41;;;;;;;;;21.50;17.75;;;;;3.87;100.00;102830.72;5058243;28;11494;-72
2022/01/15 10:35:16;;;;;;;;;16.25;13.75;;;;;3.89;100.00;102826.13;5080924;28;11479;-73
2022/01/15 10:37:57;;;;;;;;;19.50;15.75;;;;;3.90;100.00;102819.81;5041131;28;11529;-72
2022/01/15 10:40:27;;;;;;;;;17.25;13.50;;;;;3.89;100.00;102818.09;5062480;28;11512;-74
2022/01/15 10:42:56;;;;;;;;;23.25;16.50;;;;;3.92;100.00;102823.25;5061920;28;11575;-71
2022/01/15 10:45:25;;;;;;;;;17.75;14.50;;;;;3.84;100.00;102822.88;5057055;28;11460;-73
2022/01/15 10:47:55;;;;;;;;;17.75;13.75;;;;;3.89;100.00;102823.44;5057674;28;11625;-71
2022/01/15 10:50:27;;;;;;;;;21.75;15.25;;;;;3.82;100.00;102818.59;5063320;28;11501;-72
2022/01/15 10:52:56;;;;;;;;;15.25;13.50;;;;;3.97;100.00;102810.44;5062813;28;11534;-72
2022/01/15 10:55:26;;;;;;;;;20.25;16.25;;;;;3.89;100.00;102804.69;5061416;28;11567;-72
2022/01/15 10:57:54;;;;;;;;;18.50;17.00;;;;;3.86;100.00;102796.84;5056806;28;11471;-72
2022/01/15 11:00:41;;;;;;;;;22.75;18.00;;;;;3.93;100.00;102797.31;5057338;28;11456;-68
2022/01/15 11:03:12;;;;;;;;;25.25;19.50;;;;;3.92;100.00;102788.41;5058372;28;11460;-71
2022/01/15 11:05:44;;;;;;;;;21.25;20.00;;;;;3.85;100.00;102788.91;5058114;28;11520;-71
2022/01/15 11:08:25;;;;;;;;;18.75;16.75;;;;;3.88;100.00;102792.25;5070927;28;11509;-70
2022/01/15 11:10:53;;;;;;;;;26.00;20.00;;;;;3.92;100.00;102788.41;5058781;28;11484;-72
2022/01/15 11:13:22;;;;;;;;;21.25;16.75;;;;;3.87;100.00;102787.00;5057257;28;11481;-72
2022/01/15 11:15:54;;;;;;;;;27.75;20.75;;;;;3.94;100.00;102786.50;5055930;28;11542;-72
2022/01/15 11:18:22;;;;;;;;;26.75;21.25;;;;;3.94;100.00;102775.78;5070831;28;11600;-71
2022/01/15 11:20:52;;;;;;;;;15.50;15.00;;;;;3.96;100.00;102781.91;5071064;28;11502;-72
2022/01/15 11:23:21;;;;;;;;;18.00;15.75;;;;;4.03;100.00;102785.06;5056440;28;11506;-72
2022/01/15 11:25:49;;;;;;;;;16.50;16.00;;;;;4.11;100.00;102779.19;5062971;28;11493;-72
2022/01/15 11:28:19;;;;;;;;;22.50;20.00;;;;;4.11;100.00;102768.47;5060391;28;11597;-72
2022/01/15 11:30:47;;;;;;;;;23.50;18.00;;;;;4.15;100.00;102768.19;5073883;28;11577;-71
2022/01/15 11:33:20;;;;;;;;;31.75;22.25;;;;;4.07;100.00;102765.16;5057331;28;11608;-71
2022/01/15 11:35:47;;;;;;;;;25.50;23.00;;;;;4.15;100.00;102765.50;5073505;28;11660;-71
2022/01/15 11:38:44;;;;;;;;;24.75;21.75;;;;;4.18;100.00;102762.59;5072891;28;11542;-71